TAF PAGS
PAGS 270539Z 2706/2806 15008KT 4SM -SHSN BR FEW008 BKN025 TEMPO 2706/2710 1SM -SN BR FM271800 34003KT 6SM -SHSN SCT015 BKN025 AMD LTD TO CLD VIS AND WIND=
METAR PAGS
WC PAGS
WS PAGS
WV PAGS